Time;durP1;ratioP1;P1;durP2;ratioP2;P2;SDS_P1;SDS_P2;PMS_P1;PMS_P2;Temp;Humidity;BMP_temperature;BMP_pressure;BME280_temperature;BME280_humidity;BME280_pressure;Samples;Min_cycle;Max_cycle;Signal;HPM_P1;HPM_P2
2022/01/04 00:00:50;;;;;;;5.22;2.63;;;;;;;8.47;60.36;100235.66;5091805;28;20631;-75
2022/01/04 00:03:16;;;;;;;5.45;2.88;;;;;;;8.15;61.10;100207.56;5089484;27;20410;-76
2022/01/04 00:05:42;;;;;;;7.53;4.32;;;;;;;7.96;61.26;100208.28;5090450;28;20032;-74
2022/01/04 00:08:10;;;;;;;4.65;3.10;;;;;;;8.09;60.95;100196.19;5087910;28;20040;-83
2022/01/04 00:10:37;;;;;;;8.70;3.95;;;;;;;8.18;60.89;100220.63;5089703;27;20060;-74
2022/01/04 00:15:46;;;;;;;5.93;3.10;;;;;;;8.04;61.16;100230.13;5091406;28;20042;-75
2022/01/04 00:18:12;;;;;;;6.50;3.50;;;;;;;8.00;61.34;100231.81;5071257;28;20052;-75
2022/01/04 00:20:38;;;;;;;12.00;3.45;;;;;;;8.05;61.39;100239.69;5092672;28;20485;-77
2022/01/04 00:23:04;;;;;;;8.00;3.80;;;;;;;8.10;61.00;100209.28;5092730;28;20130;-76
2022/01/04 00:25:30;;;;;;;7.07;3.45;;;;;;;7.76;61.71;100195.09;5089185;28;20055;-78
2022/01/04 00:27:56;;;;;;;5.95;3.10;;;;;;;7.91;61.52;100218.69;5087003;28;20039;-79
2022/01/04 00:30:24;;;;;;;7.20;3.55;;;;;;;8.00;61.75;100244.03;5088240;28;20035;-77
2022/01/04 00:32:49;;;;;;;6.15;3.58;;;;;;;8.08;61.33;100237.13;5091440;28;20054;-75
2022/01/04 00:35:17;;;;;;;10.77;3.67;;;;;;;7.97;61.58;100241.41;5088232;28;20032;-77
2022/01/04 00:37:43;;;;;;;6.63;3.42;;;;;;;8.04;61.70;100271.94;5090932;28;20079;-79
2022/01/04 00:40:08;;;;;;;5.63;3.28;;;;;;;7.82;62.42;100260.44;5088619;28;20140;-75
2022/01/04 00:42:34;;;;;;;8.40;4.28;;;;;;;7.41;62.80;100219.16;5084724;28;20115;-79
2022/01/04 00:45:00;;;;;;;12.05;4.72;;;;;;;7.49;62.80;100222.72;5086531;28;20057;-80
2022/01/04 00:47:38;;;;;;;5.57;3.20;;;;;;;7.75;62.37;100238.63;5073964;28;20032;-78
2022/01/04 00:50:05;;;;;;;6.45;3.30;;;;;;;7.65;62.83;100241.13;5090559;28;20075;-77
2022/01/04 00:52:30;;;;;;;5.97;3.47;;;;;;;7.58;63.14;100261.94;5091819;28;20036;-78
2022/01/04 00:54:56;;;;;;;8.38;3.75;;;;;;;7.56;62.63;100252.34;5087546;28;20062;-74
2022/01/04 00:57:21;;;;;;;6.25;3.60;;;;;;;7.56;63.32;100249.72;5087654;28;20471;-79
2022/01/04 00:59:46;;;;;;;6.50;4.03;;;;;;;7.40;64.20;100274.84;5090228;28;20375;-74
2022/01/04 01:02:12;;;;;;;4.72;3.00;;;;;;;7.17;64.14;100262.41;5088977;28;20027;-73
2022/01/04 01:04:37;;;;;;;6.57;3.70;;;;;;;7.02;66.31;100259.59;5090931;28;20036;-74
2022/01/04 01:07:03;;;;;;;5.20;3.13;;;;;;;6.63;66.10;100268.69;5089284;28;20514;-79
2022/01/04 01:09:33;;;;;;;11.90;3.85;;;;;;;6.70;66.58;100275.72;5088976;27;20881;-76
2022/01/04 01:11:59;;;;;;;6.70;4.10;;;;;;;6.93;65.16;100267.31;5089111;27;20043;-84
2022/01/04 01:14:24;;;;;;;7.40;4.07;;;;;;;7.12;65.02;100258.88;5090814;27;20024;-76
2022/01/04 01:16:49;;;;;;;8.80;3.63;;;;;;;7.08;64.77;100237.94;5094289;28;20051;-75
2022/01/04 01:19:15;;;;;;;7.57;3.45;;;;;;;7.13;64.80;100238.84;5096855;28;20048;-76
2022/01/04 01:21:40;;;;;;;7.07;3.90;;;;;;;7.23;64.44;100245.06;5092464;28;20482;-73
2022/01/04 01:24:06;;;;;;;7.75;3.03;;;;;;;6.87;64.86;100223.78;5095515;28;20035;-73
2022/01/04 01:26:32;;;;;;;7.78;4.28;;;;;;;6.89;65.00;100234.25;5095321;28;20386;-78
2022/01/04 01:28:57;;;;;;;6.38;3.88;;;;;;;6.91;65.34;100250.78;5091316;27;20044;-73
2022/01/04 01:31:24;;;;;;;6.88;3.55;;;;;;;6.91;64.78;100228.19;5094229;28;20701;-80
2022/01/04 01:33:49;;;;;;;7.38;3.95;;;;;;;7.27;64.16;100255.53;5092767;27;20043;-74
2022/01/04 01:36:16;;;;;;;6.57;3.70;;;;;;;7.02;65.12;100258.72;5090833;27;20036;-81
2022/01/04 01:38:42;;;;;;;8.50;4.07;;;;;;;7.06;64.46;100229.22;5095973;28;20067;-74
2022/01/04 01:41:07;;;;;;;11.00;4.10;;;;;;;7.01;64.23;100237.00;5093261;28;20074;-78
2022/01/04 01:43:33;;;;;;;6.65;3.60;;;;;;;6.96;65.47;100236.94;5088792;28;20032;-74
2022/01/04 01:45:58;;;;;;;7.65;3.63;;;;;;;6.54;66.60;100225.09;5090343;28;20047;-74
2022/01/04 01:48:24;;;;;;;8.43;3.97;;;;;;;6.18;66.30;100183.81;5090654;28;20075;-75
2022/01/04 01:50:50;;;;;;;8.02;3.83;;;;;;;6.57;66.71;100244.25;5090997;27;20027;-74
2022/01/04 01:53:18;;;;;;;8.30;4.05;;;;;;;6.82;65.48;100256.75;5097871;27;20043;-74
2022/01/04 01:55:43;;;;;;;7.43;3.97;;;;;;;6.85;66.27;100242.88;5094138;27;20068;-74
2022/01/04 01:58:09;;;;;;;10.85;4.75;;;;;;;6.61;65.87;100236.50;5093846;28;20048;-76
2022/01/04 02:00:34;;;;;;;5.93;3.50;;;;;;;6.57;66.39;100239.03;5091300;28;20044;-75
2022/01/04 02:03:02;;;;;;;11.35;3.95;;;;;;;6.68;65.85;100250.50;5094826;27;20145;-75
2022/01/04 02:05:28;;;;;;;5.75;3.35;;;;;;;6.49;67.13;100245.03;5097960;28;20505;-75
2022/01/04 02:07:54;;;;;;;8.52;3.58;;;;;;;6.50;66.96;100262.41;5093323;28;20134;-78
2022/01/04 02:10:21;;;;;;;11.50;4.03;;;;;;;6.52;66.39;100246.81;5093746;27;20969;-75
2022/01/04 02:12:47;;;;;;;6.80;3.50;;;;;;;6.69;66.12;100262.66;5092825;27;20134;-75
2022/01/04 02:15:15;;;;;;;7.25;4.90;;;;;;;6.43;66.03;100247.53;5094996;27;20075;-75
2022/01/04 02:17:42;;;;;;;6.15;3.40;;;;;;;6.64;66.08;100256.53;5088709;28;20028;-74
2022/01/04 02:20:09;;;;;;;9.85;4.95;;;;;;;6.77;65.63;100258.44;5090853;28;20139;-74
2022/01/04 02:22:34;;;;;;;6.85;4.00;;;;;;;6.78;65.71;100254.97;5094040;28;20052;-75
2022/01/04 02:25:02;;;;;;;8.00;4.43;;;;;;;6.85;65.91;100272.44;5094018;28;20442;-78
2022/01/04 02:27:28;;;;;;;8.35;4.60;;;;;;;6.93;65.82;100277.75;5093744;27;20040;-75
2022/01/04 02:29:53;;;;;;;8.43;3.67;;;;;;;6.27;67.10;100253.38;5093773;28;20413;-77
2022/01/04 02:32:19;;;;;;;6.95;4.25;;;;;;;6.31;67.28;100276.91;5095025;28;20036;-76
2022/01/04 02:34:50;;;;;;;8.93;4.55;;;;;;;6.20;67.44;100244.59;5094186;28;20070;-75
2022/01/04 02:37:25;;;;;;;5.47;3.85;;;;;;;6.39;66.89;100261.41;5093560;28;20047;-73
2022/01/04 02:39:53;;;;;;;8.48;4.45;;;;;;;6.31;67.32;100253.44;5091579;28;20051;-85
2022/01/04 02:42:19;;;;;;;7.75;4.40;;;;;;;6.07;68.14;100245.28;5092680;28;20040;-79
2022/01/04 02:44:45;;;;;;;7.72;4.85;;;;;;;6.31;67.32;100281.25;5091411;28;20020;-75
2022/01/04 02:47:13;;;;;;;9.23;4.10;;;;;;;6.52;66.91;100289.38;5094119;28;20540;-76
2022/01/04 02:49:38;;;;;;;6.65;4.07;;;;;;;6.28;66.88;100266.44;5090231;28;20092;-77
2022/01/04 02:52:04;;;;;;;6.32;3.67;;;;;;;6.52;66.92;100302.41;5088141;28;20051;-79
2022/01/04 02:54:30;;;;;;;8.07;4.57;;;;;;;6.46;66.77;100286.69;5094404;27;20039;-76
2022/01/04 02:56:55;;;;;;;10.50;5.38;;;;;;;5.91;67.80;100289.25;5093331;28;20115;-76
2022/01/04 02:59:21;;;;;;;12.75;5.63;;;;;;;6.02;68.35;100283.41;5094540;27;20488;-74
2022/01/04 03:01:47;;;;;;;9.38;4.63;;;;;;;6.16;68.07;100300.13;5093624;27;20094;-76
2022/01/04 03:04:12;;;;;;;7.65;4.97;;;;;;;6.14;68.14;100294.03;5095413;28;20604;-74
2022/01/04 03:06:38;;;;;;;8.65;4.75;;;;;;;6.01;67.83;100285.13;5093360;27;20043;-76
2022/01/04 03:09:04;;;;;;;8.27;4.20;;;;;;;6.02;69.08;100286.00;5092302;28;20043;-80
2022/01/04 03:11:32;;;;;;;9.10;4.78;;;;;;;5.90;69.53;100271.03;5092472;28;20475;-78
2022/01/04 03:14:19;;;;;;;9.25;5.28;;;;;;;6.11;69.36;100280.91;5056755;28;20626;-80
2022/01/04 03:16:46;;;;;;;8.30;4.47;;;;;;;6.11;70.87;100270.50;5024204;28;20067;-76
2022/01/04 03:19:11;;;;;;;9.02;5.18;;;;;;;5.99;69.77;100268.59;5024503;28;20042;-84
2022/01/04 03:21:39;;;;;;;14.13;5.47;;;;;;;5.99;69.90;100283.34;5024362;28;20033;-75
2022/01/04 03:24:07;;;;;;;14.00;4.90;;;;;;;5.58;70.04;100273.06;5021262;28;20057;-74
2022/01/04 03:26:33;;;;;;;11.55;5.22;;;;;;;5.35;70.88;100280.44;5024271;28;20512;-76
2022/01/04 03:28:59;;;;;;;9.25;5.00;;;;;;;5.33;70.76;100303.81;5036094;28;20056;-76
2022/01/04 03:31:26;;;;;;;8.77;4.97;;;;;;;5.05;70.92;100287.66;5022315;28;20053;-76
2022/01/04 03:33:52;;;;;;;7.95;4.95;;;;;;;5.21;70.50;100294.06;5023039;28;20060;-74
2022/01/04 03:36:20;;;;;;;12.07;6.07;;;;;;;5.33;70.15;100289.94;5025186;28;20042;-75
2022/01/04 03:38:48;;;;;;;11.65;4.65;;;;;;;5.50;70.33;100293.72;5024257;28;20029;-77
2022/01/04 03:41:18;;;;;;;9.38;5.32;;;;;;;5.69;69.24;100314.06;5052680;28;20099;-81
2022/01/04 03:43:43;;;;;;;9.30;5.15;;;;;;;5.72;69.49;100314.09;5022401;28;20481;-77
2022/01/04 03:46:09;;;;;;;6.97;4.60;;;;;;;5.74;69.23;100301.13;5023820;28;20121;-77
2022/01/04 03:48:35;;;;;;;12.10;6.07;;;;;;;5.97;69.01;100314.59;5025671;28;20112;-84
2022/01/04 03:51:02;;;;;;;9.50;4.32;;;;;;;5.74;68.25;100297.66;5023479;28;20393;-74
2022/01/04 03:53:28;;;;;;;9.68;5.38;;;;;;;5.91;68.56;100324.84;5024211;28;20045;-75
2022/01/04 03:58:19;;;;;;;7.05;4.50;;;;;;;5.97;67.79;100325.00;5026114;28;20627;-74
2022/01/04 04:00:46;;;;;;;11.30;5.63;;;;;;;5.88;68.20;100323.06;5017141;28;20042;-79
2022/01/04 04:03:11;;;;;;;8.43;5.63;;;;;;;6.07;67.74;100339.91;5015631;28;20072;-80
2022/01/04 04:05:37;;;;;;;10.63;6.03;;;;;;;5.97;68.37;100317.19;5017607;28;20449;-79
2022/01/04 04:08:02;;;;;;;9.95;5.45;;;;;;;6.06;68.33;100330.38;5017023;28;21144;-88
2022/01/04 04:10:28;;;;;;;10.20;5.55;;;;;;;6.05;67.52;100326.00;5018015;28;20073;-74
2022/01/04 04:12:53;;;;;;;12.32;4.53;;;;;;;6.10;68.20;100344.31;5017193;28;20037;-75
2022/01/04 04:15:19;;;;;;;14.00;6.00;;;;;;;5.81;68.35;100309.94;5017114;28;20057;-76
2022/01/04 04:17:46;;;;;;;9.43;5.45;;;;;;;5.82;67.89;100304.72;5010944;28;20041;-75
2022/01/04 04:20:11;;;;;;;8.25;5.05;;;;;;;5.68;68.29;100308.81;5016564;28;20534;-76
2022/01/04 04:22:37;;;;;;;10.45;5.53;;;;;;;5.89;68.28;100324.81;5016018;28;20038;-78
2022/01/04 04:25:03;;;;;;;8.25;5.32;;;;;;;5.88;68.63;100330.00;5017003;28;20049;-77
2022/01/04 04:27:28;;;;;;;16.98;5.93;;;;;;;6.06;68.02;100356.41;5016936;28;20052;-84
2022/01/04 04:29:54;;;;;;;22.10;7.95;;;;;;;5.82;67.82;100329.91;5018693;28;20342;-80
2022/01/04 04:32:19;;;;;;;8.57;5.78;;;;;;;5.82;68.57;100329.91;5018179;28;20045;-75
2022/01/04 04:34:45;;;;;;;10.60;5.28;;;;;;;5.86;68.39;100365.56;5016344;28;20068;-77
2022/01/04 04:37:11;;;;;;;9.70;6.03;;;;;;;5.71;68.67;100335.78;5017099;28;20109;-77
2022/01/04 04:39:37;;;;;;;12.68;6.57;;;;;;;5.83;68.48;100344.66;5010466;28;20053;-79
2022/01/04 04:42:03;;;;;;;9.15;6.00;;;;;;;5.84;68.33;100339.47;5016576;28;20041;-75
2022/01/04 04:44:28;;;;;;;11.02;7.13;;;;;;;5.79;68.21;100325.50;5016898;28;20037;-80
2022/01/04 04:46:54;;;;;;;15.68;6.70;;;;;;;5.87;68.05;100336.94;5017338;28;20121;-80
2022/01/04 04:49:19;;;;;;;12.80;6.53;;;;;;;5.73;68.74;100335.81;5017448;28;20042;-74
2022/01/04 04:51:45;;;;;;;14.15;7.45;;;;;;;5.53;68.79;100319.84;5017675;28;20063;-74
2022/01/04 04:54:10;;;;;;;17.27;7.95;;;;;;;5.62;68.90;100303.50;5017270;28;20057;-80
2022/01/04 04:56:38;;;;;;;11.02;6.95;;;;;;;5.88;68.70;100341.31;5015750;28;20782;-86
2022/01/04 04:59:08;;;;;;;10.70;6.22;;;;;;;5.78;68.45;100323.75;5016465;28;20053;-85
2022/01/04 05:01:34;;;;;;;17.88;7.43;;;;;;;5.71;69.20;100324.47;5016160;28;20045;-76
2022/01/04 05:04:00;;;;;;;13.65;6.10;;;;;;;5.67;68.78;100320.97;5015863;28;20058;-77
2022/01/04 05:06:26;;;;;;;14.57;6.75;;;;;;;5.63;68.71;100298.31;5016445;28;20045;-79
2022/01/04 05:08:52;;;;;;;11.82;7.15;;;;;;;5.76;68.64;100320.25;5008117;28;20492;-85
2022/01/04 05:11:18;;;;;;;14.75;7.85;;;;;;;5.67;68.79;100312.28;5005061;28;20053;-77
2022/01/04 05:13:43;;;;;;;12.43;8.70;;;;;;;5.80;68.50;100305.56;4985864;28;20042;-76
2022/01/04 05:16:09;;;;;;;14.63;8.32;;;;;;;5.76;67.93;100291.63;5001432;28;20046;-76
2022/01/04 05:18:34;;;;;;;15.88;7.80;;;;;;;5.76;68.39;100303.75;5013675;28;20041;-79
2022/01/04 05:21:00;;;;;;;14.00;8.07;;;;;;;5.85;68.74;100316.91;5003132;28;20045;-76
2022/01/04 05:23:25;;;;;;;24.38;7.43;;;;;;;5.79;68.80;100317.69;5002234;28;20041;-81
2022/01/04 05:25:51;;;;;;;13.27;7.97;;;;;;;5.82;68.73;100314.28;5018506;28;20038;-76
2022/01/04 05:28:16;;;;;;;23.35;8.55;;;;;;;5.82;68.56;100306.47;5002815;28;20135;-83
2022/01/04 05:30:42;;;;;;;13.68;7.82;;;;;;;5.64;68.71;100292.28;5003180;28;20559;-76
2022/01/04 05:33:07;;;;;;;12.82;8.20;;;;;;;5.74;68.63;100310.69;5001836;28;20049;-76
2022/01/04 05:35:33;;;;;;;12.45;6.72;;;;;;;5.62;69.33;100313.91;5002613;28;20030;-78
2022/01/04 05:37:59;;;;;;;17.77;9.23;;;;;;;5.62;69.46;100320.00;5003082;28;20037;-77
2022/01/04 05:40:24;;;;;;;13.93;8.15;;;;;;;5.67;68.82;100317.50;5002474;28;20371;-80
2022/01/04 05:42:50;;;;;;;13.77;6.60;;;;;;;5.68;69.21;100351.34;5002025;28;20042;-75
2022/01/04 05:45:16;;;;;;;16.15;8.88;;;;;;;5.56;69.12;100324.22;5002127;28;20743;-76
2022/01/04 05:47:41;;;;;;;11.40;7.32;;;;;;;5.46;69.60;100323.16;5002412;28;20383;-75
2022/01/04 05:50:07;;;;;;;14.10;8.30;;;;;;;5.61;69.66;100319.97;5003447;28;20358;-80
2022/01/04 05:52:33;;;;;;;25.05;9.52;;;;;;;5.54;69.22;100345.00;5001845;28;20073;-76
2022/01/04 05:54:59;;;;;;;14.32;8.70;;;;;;;5.61;69.00;100352.06;5003748;28;20466;-76
2022/01/04 05:57:25;;;;;;;14.98;8.82;;;;;;;5.65;68.87;100350.41;4999818;28;20046;-76
2022/01/04 05:59:50;;;;;;;13.95;8.88;;;;;;;5.65;69.45;100359.09;5000142;28;20366;-76
2022/01/04 06:02:16;;;;;;;13.95;7.70;;;;;;;5.71;69.32;100368.75;5002620;28;20518;-76
2022/01/04 06:04:42;;;;;;;12.48;8.07;;;;;;;5.70;68.57;100339.22;4998402;28;20042;-87
2022/01/04 06:07:08;;;;;;;17.35;7.78;;;;;;;5.69;70.00;100362.66;5003463;28;20064;-82
2022/01/04 06:09:47;;;;;;;13.63;10.07;;;;;;;5.34;70.19;100341.13;5003519;28;20120;-81
2022/01/04 06:15:02;;;;;;;14.20;9.13;;;;;;;5.52;69.36;100336.28;5003016;28;20129;-81
2022/01/04 06:17:38;;;;;;;14.95;10.02;;;;;;;5.86;68.88;100357.75;4998316;28;20037;-78
2022/01/04 06:20:09;;;;;;;14.57;10.25;;;;;;;5.76;68.56;100354.09;4999444;28;20569;-79
2022/01/04 06:22:37;;;;;;;11.77;8.48;;;;;;;5.75;68.40;100354.94;4999737;28;20139;-73
2022/01/04 06:25:04;;;;;;;12.60;9.55;;;;;;;5.66;69.34;100366.03;5001230;28;20044;-74
2022/01/04 06:27:30;;;;;;;18.20;8.23;;;;;;;5.78;69.74;100377.53;5000574;28;20038;-77
2022/01/04 06:29:56;;;;;;;15.02;9.63;;;;;;;5.84;69.53;100362.91;5001369;28;20061;-76
2022/01/04 06:32:23;;;;;;;13.90;8.48;;;;;;;5.94;69.31;100364.00;5002643;28;20466;-89
2022/01/04 06:34:48;;;;;;;18.52;9.20;;;;;;;5.81;68.86;100367.22;5001965;28;20129;-75
2022/01/04 06:37:16;;;;;;;24.38;9.95;;;;;;;5.75;69.20;100365.34;5001095;28;20131;-79
2022/01/04 06:39:42;;;;;;;20.63;9.07;;;;;;;5.59;69.76;100360.69;4999856;28;20042;-76
2022/01/04 06:42:08;;;;;;;13.00;7.63;;;;;;;5.61;69.49;100366.81;5000743;28;20480;-73
2022/01/04 06:44:33;;;;;;;14.07;8.18;;;;;;;5.65;69.63;100373.84;4998958;28;20029;-75
2022/01/04 06:46:59;;;;;;;9.85;6.72;;;;;;;5.86;68.99;100379.44;4999052;28;20038;-78
2022/01/04 06:49:25;;;;;;;14.27;8.93;;;;;;;5.80;69.14;100387.13;5000217;28;20054;-69
2022/01/04 06:51:50;;;;;;;11.75;7.22;;;;;;;6.13;68.20;100422.50;5000049;28;20049;-70
2022/01/04 06:54:18;;;;;;;11.35;7.47;;;;;;;5.86;68.05;100392.47;4999217;28;20377;-72
2022/01/04 06:56:43;;;;;;;11.60;8.23;;;;;;;6.23;68.41;100416.63;4998452;28;20061;-71
2022/01/04 06:59:09;;;;;;;21.73;7.95;;;;;;;6.11;67.88;100400.75;4997293;28;20084;-79
2022/01/04 07:01:36;;;;;;;14.60;6.75;;;;;;;6.10;68.26;100406.81;5012958;28;20096;-78
2022/01/04 07:04:03;;;;;;;26.23;8.15;;;;;;;5.74;69.16;100397.44;4997804;28;20060;-85
2022/01/04 07:06:29;;;;;;;13.45;8.43;;;;;;;6.18;68.97;100423.47;4999082;28;20050;-78
2022/01/04 07:08:55;;;;;;;14.38;8.88;;;;;;;6.12;68.67;100408.59;4999062;28;20096;-78
2022/01/04 07:11:21;;;;;;;14.85;9.20;;;;;;;5.91;68.73;100410.78;4998900;28;20026;-76
2022/01/04 07:13:46;;;;;;;19.05;7.07;;;;;;;6.06;69.14;100411.13;4999214;28;20072;-82
2022/01/04 07:16:12;;;;;;;14.40;8.40;;;;;;;6.07;69.31;100417.19;4997772;28;21647;-81
2022/01/04 07:18:38;;;;;;;10.05;8.20;;;;;;;5.89;69.24;100399.47;4997937;28;20445;-74
2022/01/04 07:21:04;;;;;;;14.80;8.10;;;;;;;5.94;69.16;100397.84;4998886;28;20522;-79
2022/01/04 07:23:29;;;;;;;14.68;9.10;;;;;;;5.92;69.30;100416.03;5000292;28;20760;-76
2022/01/04 07:25:55;;;;;;;13.15;9.70;;;;;;;5.96;69.65;100393.53;5001172;28;20366;-85
2022/01/04 07:28:22;;;;;;;13.35;9.48;;;;;;;6.22;69.05;100406.16;5001600;28;20127;-86
2022/01/04 07:30:47;;;;;;;26.13;13.93;;;;;;;6.31;69.29;100415.00;5000519;28;20054;-74
2022/01/04 07:33:14;;;;;;;23.13;12.40;;;;;;;6.28;69.12;100409.75;5000970;28;20302;-87
2022/01/04 07:35:40;;;;;;;19.20;11.35;;;;;;;5.85;69.94;100403.75;5000329;28;20389;-78
2022/01/04 07:38:05;;;;;;;18.42;11.38;;;;;;;5.84;70.15;100411.53;5015114;28;21271;-80
2022/01/04 07:40:31;;;;;;;16.50;12.18;;;;;;;5.88;70.00;100429.84;5000651;28;20056;-86
2022/01/04 07:42:59;;;;;;;20.25;11.43;;;;;;;5.69;70.53;100425.13;5003037;28;20057;-85
2022/01/04 07:45:28;;;;;;;22.75;13.02;;;;;;;5.68;70.70;100411.22;5001007;28;20053;-80
2022/01/04 07:47:55;;;;;;;27.27;12.48;;;;;;;5.89;70.30;100415.09;5001662;28;20109;-75
2022/01/04 07:50:20;;;;;;;19.33;12.40;;;;;;;5.73;70.73;100429.53;5000633;28;20037;-88
2022/01/04 07:52:49;;;;;;;19.63;12.13;;;;;;;5.74;70.46;100426.09;5017666;28;20052;-81
2022/01/04 07:55:14;;;;;;;26.20;11.48;;;;;;;5.79;70.21;100434.00;5002357;28;20061;-76
2022/01/04 07:57:44;;;;;;;12.30;10.88;;;;;;;5.78;70.12;100429.63;5004969;28;20058;-76
2022/01/04 08:00:11;;;;;;;14.75;10.60;;;;;;;6.00;69.64;100434.44;5003795;28;20073;-77
2022/01/04 08:02:38;;;;;;;20.85;11.57;;;;;;;5.75;70.65;100437.38;5002148;28;20025;-76
2022/01/04 08:05:04;;;;;;;19.13;11.68;;;;;;;6.12;69.93;100455.50;5006897;28;20037;-80
2022/01/04 08:07:30;;;;;;;23.30;10.43;;;;;;;5.69;70.01;100428.59;5002484;28;20042;-76
2022/01/04 08:09:56;;;;;;;17.20;10.30;;;;;;;5.83;70.23;100443.59;5003990;28;20042;-77
2022/01/04 08:12:22;;;;;;;17.52;11.95;;;;;;;5.84;70.29;100430.63;5004102;28;20121;-78
2022/01/04 08:14:48;;;;;;;17.77;11.85;;;;;;;5.72;70.57;100409.56;4996169;28;20104;-76
2022/01/04 08:17:14;;;;;;;20.52;12.73;;;;;;;6.25;69.84;100430.56;4997165;28;20030;-76
2022/01/04 08:19:40;;;;;;;17.00;11.18;;;;;;;5.96;69.19;100416.13;5002179;28;20453;-76
2022/01/04 08:22:05;;;;;;;24.73;11.18;;;;;;;6.34;69.08;100448.97;5034209;28;20068;-76
2022/01/04 08:24:31;;;;;;;17.13;12.48;;;;;;;6.18;69.44;100438.22;5001809;28;22970;-78
2022/01/04 08:26:56;;;;;;;18.67;10.77;;;;;;;6.41;69.06;100439.50;5000564;28;20038;-75
2022/01/04 08:29:22;;;;;;;22.80;13.40;;;;;;;6.33;68.74;100444.59;5015446;28;20343;-79
2022/01/04 08:31:47;;;;;;;15.80;10.88;;;;;;;6.36;68.82;100425.50;5000769;28;20296;-76
2022/01/04 08:34:13;;;;;;;17.77;11.98;;;;;;;6.28;68.48;100434.94;5001363;28;20046;-75
2022/01/04 08:36:39;;;;;;;20.20;12.48;;;;;;;6.46;68.89;100418.72;5002261;28;20488;-76
2022/01/04 08:39:05;;;;;;;21.52;12.65;;;;;;;6.72;68.48;100417.44;5003588;28;21198;-75
2022/01/04 08:41:31;;;;;;;22.13;13.13;;;;;;;6.84;67.59;100408.06;5021976;28;20104;-75
2022/01/04 08:43:57;;;;;;;20.50;13.27;;;;;;;7.06;67.52;100423.16;5007640;28;20054;-76
2022/01/04 08:46:23;;;;;;;17.40;13.35;;;;;;;6.55;67.90;100393.72;5006595;28;20041;-77
2022/01/04 08:48:49;;;;;;;23.25;13.90;;;;;;;6.71;68.06;100401.75;5002341;28;20053;-78
2022/01/04 08:51:15;;;;;;;24.05;16.90;;;;;;;6.66;68.10;100401.69;5000795;28;20062;-75
2022/01/04 08:53:40;;;;;;;19.33;14.68;;;;;;;6.87;68.03;100398.53;5003257;28;20064;-78
2022/01/04 08:56:06;;;;;;;19.65;14.13;;;;;;;7.03;68.13;100399.63;5001849;28;20585;-78
2022/01/04 08:58:32;;;;;;;32.08;15.05;;;;;;;6.97;67.28;100402.13;5001763;28;20088;-82
2022/01/04 09:00:58;;;;;;;17.52;13.68;;;;;;;7.15;67.00;100412.84;5001322;28;20046;-77
2022/01/04 09:03:26;;;;;;;22.80;15.10;;;;;;;7.11;67.03;100405.81;5001876;28;20073;-75
2022/01/04 09:05:54;;;;;;;28.67;17.63;;;;;;;7.42;67.03;100400.13;5003907;28;20034;-77
2022/01/04 09:08:19;;;;;;;22.90;15.55;;;;;;;7.12;66.62;100360.63;5005923;28;20034;-76
2022/01/04 09:10:45;;;;;;;21.58;15.80;;;;;;;7.33;66.94;100354.81;5004605;28;20041;-75
2022/01/04 09:13:16;;;;;;;22.38;16.15;;;;;;;7.10;67.02;100361.47;5006035;28;20038;-75
2022/01/04 09:18:43;;;;;;;18.90;12.95;;;;;;;7.39;67.37;100388.78;5003728;28;20069;-79
2022/01/04 09:18:43;;;;;;;17.13;13.57;;;;;;;7.69;66.44;100392.63;4999480;28;20508;-76
2022/01/04 09:21:21;;;;;;;29.95;14.63;;;;;;;7.42;66.73;100374.91;5002203;28;20073;-77
2022/01/04 09:23:48;;;;;;;21.23;14.52;;;;;;;7.78;66.52;100379.69;5002423;28;20394;-75
2022/01/04 09:26:17;;;;;;;24.17;14.93;;;;;;;7.70;66.32;100365.69;5003875;28;20030;-75
2022/01/04 09:28:44;;;;;;;19.80;14.40;;;;;;;7.55;66.97;100374.19;5000526;28;21359;-78
2022/01/04 09:31:11;;;;;;;24.92;15.20;;;;;;;8.07;66.46;100362.53;5001725;28;20053;-89
2022/01/04 09:33:36;;;;;;;20.73;13.98;;;;;;;8.24;65.50;100377.53;5000179;28;20046;-74
2022/01/04 09:36:04;;;;;;;18.85;13.77;;;;;;;8.32;65.29;100359.28;5001509;28;20029;-74
2022/01/04 09:38:30;;;;;;;17.42;13.82;;;;;;;8.34;64.95;100339.25;5001857;28;20025;-74
2022/01/04 09:40:55;;;;;;;16.65;12.15;;;;;;;8.45;65.20;100358.56;5002726;28;20045;-79
2022/01/04 09:43:21;;;;;;;15.93;11.48;;;;;;;8.38;66.14;100356.72;5001897;28;20555;-75
2022/01/04 09:45:48;;;;;;;21.58;12.43;;;;;;;8.16;66.76;100347.81;5003061;28;20482;-74
2022/01/04 09:48:14;;;;;;;18.88;13.02;;;;;;;8.54;66.12;100368.19;5002338;28;20481;-74
2022/01/04 09:50:42;;;;;;;21.48;13.25;;;;;;;8.45;65.95;100335.03;5004391;28;20030;-72
2022/01/04 09:53:17;;;;;;;24.17;13.50;;;;;;;8.57;65.94;100323.78;5000701;28;20057;-75
2022/01/04 09:55:43;;;;;;;15.90;11.13;;;;;;;8.64;65.80;100354.34;5003105;28;20065;-75
2022/01/04 09:58:10;;;;;;;21.23;13.05;;;;;;;8.71;65.50;100342.19;4999835;28;20053;-78
2022/01/04 10:00:36;;;;;;;18.17;12.88;;;;;;;8.83;64.99;100320.44;5014965;28;20056;-74
2022/01/04 10:03:10;;;;;;;23.80;13.65;;;;;;;8.98;65.44;100348.44;5001130;28;20097;-75
2022/01/04 10:05:35;;;;;;;21.58;13.82;;;;;;;9.17;64.50;100350.25;5001493;28;20029;-75
2022/01/04 10:08:05;;;;;;;22.10;13.50;;;;;;;9.04;64.51;100333.63;5003995;28;20489;-87
2022/01/04 10:10:31;;;;;;;21.58;12.52;;;;;;;9.45;64.09;100335.53;5001168;28;20041;-76
2022/01/04 10:13:01;;;;;;;18.80;12.45;;;;;;;9.30;63.41;100323.28;5034069;28;20042;-76
2022/01/04 10:15:38;;;;;;;16.27;12.80;;;;;;;9.45;63.28;100334.66;5001109;28;20088;-76
2022/01/04 10:18:13;;;;;;;15.55;11.23;;;;;;;9.46;62.95;100323.34;4997756;28;20038;-77
2022/01/04 10:21:02;;;;;;;17.10;12.35;;;;;;;9.46;62.82;100305.88;5001498;28;20037;-78
2022/01/04 10:23:29;;;;;;;24.45;13.07;;;;;;;9.72;62.90;100318.16;4998337;28;20485;-81
2022/01/04 10:26:04;;;;;;;20.17;12.27;;;;;;;10.13;62.37;100333.91;5000061;28;20232;-76
2022/01/04 10:28:39;;;;;;;26.55;13.80;;;;;;;10.19;62.45;100324.31;4998313;28;20462;-77
2022/01/04 10:31:07;;;;;;;18.00;11.32;;;;;;;10.13;61.36;100312.94;4999735;28;20046;-76
2022/01/04 10:33:34;;;;;;;23.42;12.63;;;;;;;10.37;61.74;100324.31;4999371;28;20046;-79
2022/01/04 10:36:05;;;;;;;20.92;12.70;;;;;;;10.30;61.00;100306.84;5001116;28;20017;-82
2022/01/04 10:38:35;;;;;;;16.80;13.00;;;;;;;10.37;61.07;100302.47;5002394;28;20045;-78
2022/01/04 10:41:22;;;;;;;18.10;12.43;;;;;;;10.82;59.75;100311.16;5001974;28;20041;-78
2022/01/04 10:43:49;;;;;;;19.63;13.07;;;;;;;10.76;59.50;100309.41;5002729;28;20042;-79
2022/01/04 10:46:18;;;;;;;19.95;11.45;;;;;;;10.92;59.55;100286.63;5000346;28;20037;-77
2022/01/04 10:48:48;;;;;;;16.40;12.43;;;;;;;11.07;59.70;100299.69;4999473;28;20143;-77
2022/01/04 10:51:19;;;;;;;21.92;12.85;;;;;;;11.41;58.44;100291.66;4998832;28;20445;-84
2022/01/04 10:53:47;;;;;;;20.65;14.98;;;;;;;11.79;58.28;100306.31;5015167;28;20022;-76
2022/01/04 10:56:23;;;;;;;20.30;14.35;;;;;;;11.90;56.71;100288.75;5015034;28;20134;-76
2022/01/04 10:58:50;;;;;;;20.88;13.57;;;;;;;12.14;56.14;100300.81;5002351;28;20041;-79
2022/01/04 11:01:22;;;;;;;37.72;17.10;;;;;;;12.38;55.99;100310.25;5001332;28;20056;-78
2022/01/04 11:03:53;;;;;;;19.58;12.57;;;;;;;12.57;55.14;100303.09;5001142;28;20120;-79
2022/01/04 11:06:20;;;;;;;19.50;11.20;;;;;;;12.76;54.40;100316.94;5001902;28;20046;-78
2022/01/04 11:08:47;;;;;;;15.52;10.98;;;;;;;12.86;54.98;100304.53;5000888;28;20040;-76
2022/01/04 11:11:12;;;;;;;16.75;11.88;;;;;;;12.31;56.11;100297.16;5002976;28;20128;-76
2022/01/04 11:13:38;;;;;;;16.55;11.02;;;;;;;12.46;55.74;100326.00;5002587;28;20477;-76
2022/01/04 11:16:06;;;;;;;19.17;10.88;;;;;;;12.44;56.17;100312.84;5003735;28;20050;-76
2022/01/04 11:18:40;;;;;;;21.75;12.05;;;;;;;12.49;55.03;100286.47;4996781;28;20041;-78
2022/01/04 11:21:08;;;;;;;17.23;13.52;;;;;;;12.73;54.84;100301.13;5001198;28;20049;-81
2022/01/04 11:23:34;;;;;;;18.10;11.52;;;;;;;13.09;54.64;100285.81;5000531;28;20041;-78
2022/01/04 11:26:02;;;;;;;16.00;11.48;;;;;;;12.38;56.05;100273.41;4981746;28;20046;-80
2022/01/04 11:28:27;;;;;;;23.83;10.48;;;;;;;11.98;56.86;100259.75;5006904;28;20053;-80
2022/01/04 11:30:53;;;;;;;15.18;9.27;;;;;;;11.56;57.05;100230.25;5003759;28;20454;-83